Time;durP1;ratioP1;P1;durP2;ratioP2;P2;SDS_P1;SDS_P2;PMS_P1;PMS_P2;Temp;Humidity;BMP_temperature;BMP_pressure;BME280_temperature;BME280_humidity;BME280_pressure;Samples;Min_cycle;Max_cycle;Signal;HPM_P1;HPM_P2
2023/10/06 00:03:05;;;;;;;1.65;1.55;;;10.50;99.90;;;;;;6251433;23;20202;-80
2023/10/06 00:05:33;;;;;;;0.50;0.50;;;10.50;99.90;;;;;;6225032;23;20206;-80
2023/10/06 00:08:04;;;;;;;0.60;0.60;;;10.50;99.90;;;;;;6250789;23;20176;-81
2023/10/06 00:10:32;;;;;;;0.85;0.85;;;10.50;99.90;;;;;;6225005;23;20179;-80
2023/10/06 00:12:59;;;;;;;2.53;2.42;;;10.50;99.90;;;;;;6250511;23;20187;-79
2023/10/06 00:15:38;;;;;;;0.60;0.60;;;10.50;99.90;;;;;;6249933;23;20214;-79
2023/10/06 00:18:16;;;;;;;2.03;1.92;;;10.50;99.90;;;;;;6224102;23;20231;-80
2023/10/06 00:20:48;;;;;;;1.23;1.23;;;10.40;99.90;;;;;;6250152;23;20164;-80
2023/10/06 00:23:22;;;;;;;0.93;0.93;;;10.40;99.90;;;;;;6249580;23;20250;-79
2023/10/06 00:25:54;;;;;;;1.60;1.27;;;10.40;99.90;;;;;;6250089;23;20184;-81
2023/10/06 00:28:27;;;;;;;0.88;0.88;;;10.30;99.90;;;;;;6250078;23;20168;-80
2023/10/06 00:30:57;;;;;;;0.70;0.70;;;10.30;99.90;;;;;;6250221;23;20179;-80
2023/10/06 00:33:31;;;;;;;0.47;0.47;;;10.30;99.90;;;;;;6250361;23;20194;-78
2023/10/06 00:36:13;;;;;;;1.60;1.50;;;10.30;99.90;;;;;;6250604;23;20174;-79
2023/10/06 00:38:50;;;;;;;0.50;0.50;;;10.40;99.90;;;;;;6250118;23;20167;-80
2023/10/06 00:41:20;;;;;;;1.50;1.42;;;10.40;99.90;;;;;;6250221;23;20179;-80
2023/10/06 00:43:49;;;;;;;1.13;1.10;;;10.40;99.90;;;;;;6222417;23;20184;-80
2023/10/06 00:46:21;;;;;;;3.10;2.30;;;10.40;99.90;;;;;;6249737;23;20207;-80
2023/10/06 00:48:56;;;;;;;0.70;0.70;;;10.40;99.90;;;;;;6249369;23;20172;-78
2023/10/06 00:51:26;;;;;;;0.82;0.82;;;10.40;99.90;;;;;;6249178;23;20191;-79
2023/10/06 00:53:58;;;;;;;0.40;0.40;;;10.40;99.90;;;;;;6249192;23;20201;-80
2023/10/06 00:56:28;;;;;;;0.40;0.40;;;10.40;99.90;;;;;;6249340;23;20338;-79
2023/10/06 00:58:56;;;;;;;0.98;0.98;;;10.30;99.90;;;;;;6249719;23;20191;-79
2023/10/06 01:01:24;;;;;;;3.70;3.53;;;10.30;99.90;;;;;;6223169;23;20274;-79
2023/10/06 01:04:00;;;;;;;0.68;0.68;;;10.30;99.90;;;;;;6249370;23;20203;-80
2023/10/06 01:06:41;;;;;;;0.70;0.70;;;10.30;99.90;;;;;;6222978;23;20163;-80
2023/10/06 01:11:45;;;;;;;0.55;0.55;;;10.20;99.90;;;;;;6248456;23;20215;-79
2023/10/06 01:14:26;;;;;;;0.95;0.95;;;10.30;99.90;;;;;;6223329;23;20189;-80
2023/10/06 01:17:14;;;;;;;0.40;0.40;;;10.30;99.90;;;;;;6249523;23;20160;-78
2023/10/06 01:19:48;;;;;;;3.28;1.02;;;10.40;99.90;;;;;;6249674;23;20370;-80
2023/10/06 01:22:27;;;;;;;0.40;0.40;;;10.50;99.90;;;;;;6248690;23;20243;-78
2023/10/06 01:24:54;;;;;;;0.93;0.93;;;10.50;99.90;;;;;;6249680;23;20168;-79
2023/10/06 01:27:27;;;;;;;0.60;0.60;;;10.60;99.90;;;;;;6223086;23;20373;-79
2023/10/06 01:30:17;;;;;;;0.63;0.63;;;10.70;99.90;;;;;;6249560;23;20397;-78
2023/10/06 01:32:49;;;;;;;0.75;0.75;;;10.70;99.90;;;;;;6247801;23;20187;-79
2023/10/06 01:35:17;;;;;;;0.95;0.95;;;10.70;99.90;;;;;;6250060;23;20171;-80
2023/10/06 01:37:45;;;;;;;0.50;0.50;;;10.80;99.90;;;;;;6248675;23;20199;-80
2023/10/06 01:40:35;;;;;;;1.20;1.20;;;10.80;99.90;;;;;;6249670;23;20245;-79
2023/10/06 01:43:09;;;;;;;1.73;1.55;;;10.80;99.90;;;;;;6249922;23;20199;-80
2023/10/06 01:45:43;;;;;;;0.90;0.90;;;10.70;99.90;;;;;;6249535;23;20194;-80
2023/10/06 01:50:42;;;;;;;2.35;1.58;;;;;;;;;;6249182;23;20160;-79
2023/10/06 01:53:16;;;;;;;0.70;0.70;;;10.60;99.90;;;;;;6249365;23;20183;-80
2023/10/06 01:55:49;;;;;;;4.10;1.95;;;10.70;99.90;;;;;;6249438;23;20198;-80
2023/10/06 01:58:16;;;;;;;0.50;0.50;;;10.30;99.90;;;;;;6248565;23;20168;-80
2023/10/06 02:00:47;;;;;;;1.00;1.00;;;10.50;99.90;;;;;;6251052;23;20642;-80
2023/10/06 02:03:17;;;;;;;1.60;1.50;;;11.80;99.90;;;;;;6251349;23;20212;-80
2023/10/06 02:05:44;;;;;;;0.60;0.60;;;10.40;99.90;;;;;;6251099;23;20190;-79
2023/10/06 02:08:21;;;;;;;3.05;2.67;;;10.30;99.90;;;;;;6251208;23;20184;-79
2023/10/06 02:10:52;;;;;;;0.50;0.50;;;10.60;99.90;;;;;;6251093;23;20171;-80
2023/10/06 02:13:21;;;;;;;2.10;1.98;;;10.40;99.90;;;;;;6250992;23;20417;-81
2023/10/06 02:16:03;;;;;;;1.13;1.13;;;10.30;99.90;;;;;;6249928;23;20176;-79
2023/10/06 02:18:36;;;;;;;0.80;0.80;;;10.00;99.90;;;;;;6250986;23;20164;-80
2023/10/06 02:21:11;;;;;;;0.40;0.40;;;10.50;99.90;;;;;;6250794;23;20168;-79
2023/10/06 02:23:40;;;;;;;2.78;2.00;;;10.70;99.90;;;;;;6249948;23;20206;-79
2023/10/06 02:26:12;;;;;;;0.93;0.93;;;10.20;99.90;;;;;;6250966;23;20199;-81
2023/10/06 02:28:43;;;;;;;1.30;1.30;;;10.60;99.90;;;;;;6249651;23;20168;-81
2023/10/06 02:31:12;;;;;;;1.67;1.58;;;10.90;99.90;;;;;;6223763;23;20172;-80
2023/10/06 02:33:40;;;;;;;0.50;0.50;;;;;;;;;;6250044;23;20357;-81
2023/10/06 02:36:22;;;;;;;3.38;3.17;;;11.10;99.90;;;;;;6250786;23;20187;-80
2023/10/06 02:38:51;;;;;;;0.95;0.95;;;11.10;99.90;;;;;;6224310;23;20603;-82
2023/10/06 02:41:20;;;;;;;1.13;1.08;;;11.00;99.90;;;;;;6250612;23;20176;-80
2023/10/06 02:43:49;;;;;;;0.50;0.50;;;11.10;99.90;;;;;;6250793;23;20230;-80
2023/10/06 02:46:20;;;;;;;1.38;1.38;;;;;;;;;;6251727;23;20205;-81
2023/10/06 02:48:50;;;;;;;3.53;3.33;;;14.00;99.90;;;;;;6254906;23;20160;-81
2023/10/06 02:51:32;;;;;;;2.95;2.83;;;11.20;99.90;;;;;;6274163;23;20167;-80
2023/10/06 02:56:57;;;;;;;0.70;0.70;;;11.40;99.90;;;;;;6253885;23;20183;-80
2023/10/06 02:59:25;;;;;;;2.47;1.90;;;11.40;99.90;;;;;;6251544;23;20183;-80
2023/10/06 03:01:57;;;;;;;3.17;2.97;;;11.40;99.90;;;;;;6250611;23;20286;-80
2023/10/06 03:04:28;;;;;;;10.00;5.30;;;11.40;99.90;;;;;;6249999;23;20495;-78
2023/10/06 03:06:59;;;;;;;1.88;1.77;;;11.40;99.90;;;;;;6249622;23;20184;-80
2023/10/06 03:14:58;;;;;;;0.60;0.60;;;11.30;99.90;;;;;;6250118;23;20551;-80
2023/10/06 03:17:26;;;;;;;0.60;0.60;;;11.30;99.90;;;;;;6251028;23;20174;-82
2023/10/06 03:20:08;;;;;;;1.73;1.63;;;11.50;99.90;;;;;;6250003;23;20247;-77
2023/10/06 03:22:37;;;;;;;1.50;1.40;;;11.40;99.90;;;;;;6247372;23;20510;-77
2023/10/06 03:25:15;;;;;;;2.28;2.17;;;11.40;99.90;;;;;;6250149;23;20415;-78
2023/10/06 03:27:45;;;;;;;3.42;3.25;;;11.40;99.90;;;;;;6249546;23;20397;-80
2023/10/06 03:30:19;;;;;;;2.88;2.72;;;11.40;99.90;;;;;;6250960;23;20187;-80
2023/10/06 03:32:50;;;;;;;2.42;2.22;;;11.40;99.90;;;;;;6252695;23;20195;-79
2023/10/06 03:35:24;;;;;;;0.85;0.85;;;;;;;;;;6256515;23;20160;-80
2023/10/06 03:37:52;;;;;;;0.50;0.50;;;11.50;99.90;;;;;;6256239;23;20183;-82
2023/10/06 03:40:23;;;;;;;1.98;1.88;;;;;;;;;;6256160;23;20179;-79
2023/10/06 03:42:52;;;;;;;9.15;1.30;;;;;;;;;;6255745;23;20531;-80
2023/10/06 03:45:32;;;;;;;1.17;1.13;;;;;;;;;;6250709;23;20221;-82
2023/10/06 03:48:13;;;;;;;0.70;0.70;;;11.20;99.90;;;;;;6249871;23;20167;-80
2023/10/06 03:50:43;;;;;;;1.63;1.52;;;11.00;99.90;;;;;;6226327;23;20518;-79
2023/10/06 03:53:14;;;;;;;2.17;2.08;;;11.20;99.90;;;;;;6223993;23;20187;-79
2023/10/06 03:55:45;;;;;;;0.85;0.85;;;11.10;99.90;;;;;;6249827;23;20226;-80
2023/10/06 03:58:16;;;;;;;2.75;1.40;;;11.30;99.90;;;;;;6223352;23;20168;-81
2023/10/06 04:00:47;;;;;;;1.98;1.88;;;11.20;99.90;;;;;;6249239;23;20230;-79
2023/10/06 04:03:17;;;;;;;1.50;1.40;;;11.30;99.90;;;;;;6249669;23;20211;-79
2023/10/06 04:05:45;;;;;;;2.25;2.15;;;11.30;99.90;;;;;;6249857;23;20375;-80
2023/10/06 04:08:15;;;;;;;1.27;1.27;;;;;;;;;;6250573;23;20206;-81
2023/10/06 04:10:45;;;;;;;1.25;1.25;;;;;;;;;;6223992;23;20223;-79
2023/10/06 04:13:12;;;;;;;0.40;0.40;;;;;;;;;;6250002;23;20180;-80
2023/10/06 04:15:46;;;;;;;1.10;1.10;;;11.50;99.90;;;;;;6250459;23;20492;-80
2023/10/06 04:18:16;;;;;;;0.50;0.50;;;;;;;;;;6254706;23;20202;-77
2023/10/06 04:20:45;;;;;;;0.82;0.82;;;11.40;99.90;;;;;;6252598;23;20184;-78
2023/10/06 04:23:14;;;;;;;1.30;1.30;;;11.70;99.90;;;;;;6252374;23;20204;-80
2023/10/06 04:25:42;;;;;;;1.70;1.60;;;;;;;;;;6251650;23;20183;-80
2023/10/06 04:28:13;;;;;;;0.98;0.82;;;11.10;99.90;;;;;;6251836;23;20179;-77
2023/10/06 04:30:42;;;;;;;0.50;0.50;;;11.70;99.90;;;;;;6251970;23;20530;-80
2023/10/06 04:33:14;;;;;;;0.88;0.88;;;11.60;99.90;;;;;;6250861;23;20254;-82
2023/10/06 04:35:55;;;;;;;1.13;1.13;;;11.60;99.90;;;;;;6250058;23;20171;-80
2023/10/06 04:38:23;;;;;;;2.20;2.08;;;11.60;99.90;;;;;;6250004;23;20168;-80
2023/10/06 04:40:51;;;;;;;0.93;0.93;;;11.50;99.90;;;;;;6249614;23;20184;-80
2023/10/06 04:43:19;;;;;;;1.40;1.20;;;11.70;99.90;;;;;;6249524;23;20545;-79
2023/10/06 04:45:50;;;;;;;2.55;2.35;;;11.50;99.90;;;;;;6248812;23;20179;-80
2023/10/06 04:48:21;;;;;;;1.05;1.05;;;;;;;;;;6249977;23;20168;-80
2023/10/06 04:50:51;;;;;;;1.27;1.17;;;11.30;99.90;;;;;;6249738;23;20184;-80
2023/10/06 04:53:18;;;;;;;1.95;1.85;;;11.90;99.90;;;;;;6249531;23;20179;-79
2023/10/06 04:55:46;;;;;;;1.40;1.38;;;12.20;99.90;;;;;;6249669;23;20656;-80
2023/10/06 04:58:13;;;;;;;1.00;1.00;;;11.70;99.90;;;;;;6249162;23;20495;-79
2023/10/06 05:00:41;;;;;;;1.13;1.13;;;11.60;99.90;;;;;;6248852;23;20176;-79
2023/10/06 05:03:11;;;;;;;1.55;1.45;;;;;;;;;;6222802;23;20207;-79
2023/10/06 05:05:38;;;;;;;0.60;0.60;;;11.60;99.90;;;;;;6248948;23;20229;-80
2023/10/06 05:08:09;;;;;;;1.35;1.25;;;;;;;;;;6248702;23;20207;-80
2023/10/06 05:10:37;;;;;;;1.13;1.13;;;11.20;99.90;;;;;;6249647;23;20172;-80
2023/10/06 05:13:06;;;;;;;0.80;0.80;;;;;;;;;;6248585;23;20187;-80
2023/10/06 05:15:40;;;;;;;1.88;1.77;;;11.50;99.90;;;;;;6248449;23;20229;-81
2023/10/06 05:18:07;;;;;;;1.45;1.45;;;11.70;99.90;;;;;;6248969;23;20206;-80
2023/10/06 05:20:35;;;;;;;0.85;0.85;;;;;;;;;;6248722;23;20183;-80
2023/10/06 05:23:07;;;;;;;2.42;2.25;;;11.60;99.90;;;;;;6248586;23;20289;-80
2023/10/06 05:25:34;;;;;;;1.27;1.23;;;8.20;99.90;;;;;;6249438;23;20214;-81
2023/10/06 05:28:03;;;;;;;0.50;0.50;;;11.30;99.90;;;;;;6248209;23;20228;-80
2023/10/06 05:30:31;;;;;;;0.90;0.90;;;11.50;99.90;;;;;;6249166;23;20183;-80
2023/10/06 05:32:59;;;;;;;0.60;0.60;;;;;;;;;;6249093;23;20242;-80
2023/10/06 05:35:29;;;;;;;1.60;1.50;;;11.30;99.90;;;;;;6250588;23;20258;-81
2023/10/06 05:37:57;;;;;;;0.82;0.82;;;11.50;99.90;;;;;;6226177;23;20211;-81
2023/10/06 05:40:25;;;;;;;3.63;3.42;;;11.40;99.90;;;;;;6252648;23;20252;-80
2023/10/06 05:42:52;;;;;;;0.70;0.70;;;11.60;99.90;;;;;;6251876;23;20480;-80
2023/10/06 05:45:19;;;;;;;0.40;0.40;;;11.20;99.90;;;;;;6251907;23;20211;-80
2023/10/06 05:47:51;;;;;;;2.85;2.63;;;11.80;99.90;;;;;;6224732;23;20250;-80
2023/10/06 05:50:27;;;;;;;1.08;1.08;;;11.50;99.90;;;;;;6250219;23;20184;-82
2023/10/06 05:53:04;;;;;;;3.28;2.97;;;11.10;99.90;;;;;;6250343;23;20168;-81
2023/10/06 05:55:35;;;;;;;2.38;2.28;;;11.30;99.90;;;;;;6224438;23;20167;-82
2023/10/06 05:58:03;;;;;;;1.77;1.67;;;11.30;99.90;;;;;;6251190;23;20215;-82
2023/10/06 06:00:31;;;;;;;1.75;1.65;;;11.20;99.90;;;;;;6223658;23;20274;-81
2023/10/06 06:03:06;;;;;;;1.25;1.25;;;11.20;99.90;;;;;;6250030;23;20219;-82
2023/10/06 06:05:35;;;;;;;2.20;2.10;;;11.50;99.90;;;;;;6224233;23;20237;-81
2023/10/06 06:08:05;;;;;;;1.70;1.60;;;11.60;99.90;;;;;;6251003;23;20176;-82
2023/10/06 06:10:32;;;;;;;0.73;0.73;;;12.10;99.90;;;;;;6250857;23;20464;-79
2023/10/06 06:13:00;;;;;;;0.98;0.98;;;12.00;99.90;;;;;;6250154;23;20211;-79
2023/10/06 06:15:27;;;;;;;1.00;1.00;;;11.70;99.90;;;;;;6250322;23;20375;-81
2023/10/06 06:17:55;;;;;;;2.70;2.45;;;12.00;99.90;;;;;;6250380;23;20184;-79
2023/10/06 06:20:22;;;;;;;0.82;0.82;;;12.20;99.90;;;;;;6251479;23;20172;-78
2023/10/06 06:22:58;;;;;;;0.95;0.93;;;;;;;;;;6249572;23;20183;-80
2023/10/06 06:25:29;;;;;;;0.75;0.75;;;12.50;99.90;;;;;;6223880;23;20163;-80
2023/10/06 06:27:59;;;;;;;0.40;0.40;;;12.60;99.90;;;;;;6224375;23;20171;-80
2023/10/06 06:30:26;;;;;;;1.77;1.67;;;12.30;99.90;;;;;;6252903;23;20249;-79
2023/10/06 06:32:54;;;;;;;0.50;0.50;;;12.20;99.90;;;;;;6248844;23;20183;-82
2023/10/06 06:35:23;;;;;;;1.65;1.52;;;12.60;99.90;;;;;;6223653;23;20172;-81
2023/10/06 06:37:52;;;;;;;0.50;0.50;;;12.80;99.90;;;;;;6249680;23;20183;-79
2023/10/06 06:40:20;;;;;;;2.75;2.65;;;;;;;;;;6249865;23;20645;-79
2023/10/06 06:42:48;;;;;;;1.08;1.08;;;13.00;99.90;;;;;;6224960;23;20241;-80
2023/10/06 06:45:16;;;;;;;0.47;0.47;;;12.90;99.90;;;;;;6251618;23;20298;-87
2023/10/06 06:47:44;;;;;;;0.70;0.70;;;;;;;;;;6206328;23;20183;-85
2023/10/06 06:50:15;;;;;;;3.10;2.90;;;13.40;99.90;;;;;;6262090;23;20202;-83
2023/10/06 06:52:47;;;;;;;1.50;1.15;;;13.50;99.90;;;;;;6228121;23;20202;-87
2023/10/06 06:55:20;;;;;;;0.60;0.60;;;;;;;;;;6259324;23;20206;-84
2023/10/06 06:57:49;;;;;;;1.60;1.53;;;13.60;99.90;;;;;;6248402;22;20407;-83
2023/10/06 07:00:24;;;;;;;0.73;0.73;;;;;;;;;;6229835;23;20356;-88
2023/10/06 07:02:53;;;;;;;1.00;0.97;;;13.60;99.90;;;;;;6202508;23;20431;-88
2023/10/06 07:05:23;;;;;;;1.07;1.07;;;;;;;;;;6229828;23;20428;-81
2023/10/06 07:07:51;;;;;;;0.70;0.70;;;;;;;;;;6222937;23;20429;-81
2023/10/06 07:10:20;;;;;;;0.50;0.50;;;14.10;99.90;;;;;;6221452;23;20465;-81
2023/10/06 07:12:48;;;;;;;0.50;0.50;;;;;;;;;;6219718;23;20701;-80
2023/10/06 07:15:17;;;;;;;1.57;1.47;;;15.10;99.90;;;;;;6220078;23;20398;-83
2023/10/06 07:17:45;;;;;;;1.00;1.00;;;15.10;99.90;;;;;;6221135;23;20415;-82
2023/10/06 07:20:17;;;;;;;0.83;0.83;;;14.90;99.90;;;;;;6194524;23;20396;-80
2023/10/06 07:22:48;;;;;;;1.13;1.13;;;14.90;99.90;;;;;;6220368;23;20453;-81
2023/10/06 07:25:17;;;;;;;0.83;0.83;;;;;;;;;;6194150;23;20418;-82
2023/10/06 07:27:49;;;;;;;1.33;1.33;;;15.00;99.90;;;;;;6218084;23;20439;-81
2023/10/06 07:30:22;;;;;;;0.80;0.80;;;;;;;;;;6219298;23;20394;-81
2023/10/06 07:32:51;;;;;;;0.90;0.90;;;15.10;99.90;;;;;;6219767;23;20353;-80
2023/10/06 07:35:20;;;;;;;0.70;0.70;;;15.50;99.90;;;;;;6219187;23;20468;-80
2023/10/06 07:37:49;;;;;;;0.60;0.60;;;15.70;99.90;;;;;;6219629;23;20365;-79
2023/10/06 07:40:21;;;;;;;0.60;0.60;;;;;;;;;;6218549;23;20520;-81
2023/10/06 07:42:49;;;;;;;4.03;2.27;;;15.90;99.90;;;;;;6222346;23;20356;-86
2023/10/06 07:45:19;;;;;;;0.70;0.70;;;15.60;99.90;;;;;;6227095;22;20419;-84
2023/10/06 07:47:50;;;;;;;1.90;1.77;;;;;;;;;;6221192;23;20367;-85
2023/10/06 07:50:17;;;;;;;9.30;3.80;;;15.70;99.90;;;;;;6221954;23;20368;-83
2023/10/06 07:52:52;;;;;;;0.80;0.80;;;16.10;99.90;;;;;;6222535;23;20373;-86
2023/10/06 07:55:22;;;;;;;0.87;0.87;;;16.20;99.90;;;;;;6194865;23;20402;-82
2023/10/06 07:57:51;;;;;;;0.70;0.70;;;16.10;99.90;;;;;;6197977;23;20428;-82
2023/10/06 08:00:30;;;;;;;0.70;0.70;;;16.30;99.90;;;;;;6221710;23;20425;-82
2023/10/06 08:02:59;;;;;;;0.83;0.83;;;17.80;99.90;;;;;;6199008;23;20377;-83
2023/10/06 08:05:27;;;;;;;0.80;0.80;;;17.70;99.90;;;;;;6222654;23;20476;-83
2023/10/06 08:07:58;;;;;;;2.90;2.80;;;17.00;99.90;;;;;;6223222;23;20411;-83
2023/10/06 08:10:29;;;;;;;2.03;1.93;;;17.40;99.90;;;;;;6233049;22;20372;-82
2023/10/06 08:13:02;;;;;;;2.20;2.10;;;18.10;99.90;;;;;;6216676;22;20402;-86
2023/10/06 08:15:32;;;;;;;1.70;1.10;;;18.60;99.90;;;;;;6242617;22;20414;-85
2023/10/06 08:18:00;;;;;;;0.80;0.80;;;19.20;99.90;;;;;;6240800;22;20673;-84
2023/10/06 08:20:29;;;;;;;2.20;2.10;;;19.70;99.90;;;;;;6227297;23;20406;-81
2023/10/06 08:22:59;;;;;;;1.23;1.20;;;;;;;;;;6225119;23;20425;-90
2023/10/06 08:25:33;;;;;;;1.20;1.20;;;20.00;99.90;;;;;;6196974;23;20424;-86
2023/10/06 08:28:15;;;;;;;1.63;1.53;;;23.10;99.90;;;;;;6225417;23;20371;-84
2023/10/06 08:30:43;;;;;;;0.90;0.90;;;;;;;;;;6221826;23;20409;-86
2023/10/06 08:33:12;;;;;;;0.80;0.80;;;21.70;99.90;;;;;;6222384;23;20718;-84
2023/10/06 08:35:40;;;;;;;1.00;1.00;;;21.20;99.90;;;;;;6191257;23;20438;-82
2023/10/06 08:38:07;;;;;;;0.80;0.80;;;20.70;99.90;;;;;;6218853;23;20470;-84
2023/10/06 08:40:37;;;;;;;1.07;1.03;;;21.50;99.90;;;;;;6221369;23;20398;-82
2023/10/06 08:43:08;;;;;;;1.00;1.00;;;;;;;;;;6222063;23;20398;-81
2023/10/06 08:45:42;;;;;;;1.03;1.03;;;21.70;99.90;;;;;;6222306;23;20421;-83
2023/10/06 08:48:10;;;;;;;0.80;0.80;;;;;;;;;;6220883;23;20385;-87
2023/10/06 08:50:41;;;;;;;1.00;1.00;;;21.70;99.90;;;;;;6230924;22;20414;-82
2023/10/06 08:53:13;;;;;;;2.07;1.97;;;;;;;;;;6241869;22;20384;-87
2023/10/06 08:55:44;;;;;;;1.20;1.20;;;;;;;;;;6234505;22;20386;-87
2023/10/06 08:58:14;;;;;;;2.50;2.40;;;;;;;;;;6207695;22;20490;-85
2023/10/06 09:00:46;;;;;;;1.53;1.43;;;;;;;;;;6252996;22;20419;-89
2023/10/06 09:03:17;;;;;;;1.10;1.10;;;;;;;;;;6256068;22;20385;-88
2023/10/06 09:05:45;;;;;;;1.90;1.80;;;;;;;;;;6228269;23;20432;-82
2023/10/06 09:08:15;;;;;;;0.80;0.80;;;20.90;99.90;;;;;;6256828;22;20417;-85
2023/10/06 09:10:50;;;;;;;3.43;2.03;;;20.20;99.90;;;;;;6232138;23;20431;-83
2023/10/06 09:13:19;;;;;;;1.77;1.67;;;20.90;99.90;;;;;;6238069;22;20453;-82
2023/10/06 09:16:03;;;;;;;1.20;1.20;;;20.80;99.90;;;;;;6283029;22;20392;-86
2023/10/06 09:18:34;;;;;;;0.80;0.80;;;20.20;99.90;;;;;;6282923;22;20388;-85
2023/10/06 09:21:19;;;;;;;1.57;1.47;;;19.60;99.90;;;;;;6283145;22;20407;-83
2023/10/06 09:23:49;;;;;;;0.80;0.80;;;19.20;99.90;;;;;;6283479;22;20913;-82
2023/10/06 09:26:27;;;;;;;0.90;0.90;;;19.10;99.90;;;;;;6284124;22;20471;-80
2023/10/06 09:28:56;;;;;;;1.43;1.43;;;19.40;99.90;;;;;;6265954;22;20478;-85
2023/10/06 09:31:44;;;;;;;2.30;2.20;;;19.20;99.90;;;;;;6296048;22;20429;-82
2023/10/06 09:34:11;;;;;;;0.80;0.80;;;19.90;99.90;;;;;;6293288;22;20358;-84
2023/10/06 09:36:42;;;;;;;0.77;0.77;;;19.70;99.90;;;;;;6283830;22;20562;-80
2023/10/06 09:39:32;;;;;;;1.83;1.73;;;19.70;99.90;;;;;;6281854;22;20377;-79
2023/10/06 09:42:01;;;;;;;0.70;0.70;;;19.40;99.90;;;;;;6256319;22;20380;-85
2023/10/06 09:44:30;;;;;;;0.90;0.90;;;19.80;99.90;;;;;;6280605;22;20466;-82
2023/10/06 09:47:03;;;;;;;1.43;1.37;;;20.20;99.90;;;;;;6281904;22;20429;-82
2023/10/06 09:49:32;;;;;;;0.80;0.80;;;20.60;99.90;;;;;;6282352;22;20383;-82
2023/10/06 09:52:03;;;;;;;0.80;0.80;;;20.80;99.90;;;;;;6282847;22;20636;-83
2023/10/06 09:54:31;;;;;;;0.90;0.90;;;20.70;99.90;;;;;;6282336;22;20395;-83
2023/10/06 09:57:00;;;;;;;0.80;0.80;;;20.30;99.90;;;;;;6283275;22;20439;-82
2023/10/06 09:59:28;;;;;;;0.80;0.80;;;;;;;;;;6283250;22;20420;-83
2023/10/06 10:01:56;;;;;;;0.80;0.80;;;;;;;;;;6266017;22;20415;-83
2023/10/06 10:04:30;;;;;;;1.73;1.63;;;19.80;99.90;;;;;;6281245;22;20427;-81
2023/10/06 10:07:01;;;;;;;1.60;1.47;;;19.60;99.90;;;;;;6259979;22;20792;-80
2023/10/06 10:09:31;;;;;;;1.00;1.00;;;19.80;99.90;;;;;;6283206;22;20400;-82
2023/10/06 10:12:00;;;;;;;2.27;2.17;;;;;;;;;;6288359;22;20399;-81
2023/10/06 10:14:43;;;;;;;0.90;0.90;;;19.80;99.90;;;;;;6256418;22;20418;-80
2023/10/06 10:17:13;;;;;;;1.30;1.30;;;20.30;99.90;;;;;;6282937;22;20735;-81
2023/10/06 10:19:45;;;;;;;1.30;1.30;;;19.60;99.90;;;;;;6281302;22;20392;-81
2023/10/06 10:22:13;;;;;;;1.27;1.17;;;;;;;;;;6281082;22;20704;-81
2023/10/06 10:24:42;;;;;;;0.90;0.90;;;;;;;;;;6280746;22;20796;-82
2023/10/06 10:27:30;;;;;;;0.90;0.90;;;20.80;99.90;;;;;;6259270;22;20427;-81
2023/10/06 10:30:07;;;;;;;1.27;1.27;;;20.90;99.90;;;;;;6284372;22;20390;-85
2023/10/06 10:32:35;;;;;;;0.80;0.80;;;;;;;;;;6283191;22;20399;-82
2023/10/06 10:35:16;;;;;;;0.90;0.90;;;20.90;99.90;;;;;;6284080;22;20400;-81
2023/10/06 10:37:55;;;;;;;1.20;1.20;;;21.20;99.90;;;;;;6284928;22;20407;-84
2023/10/06 10:40:27;;;;;;;1.00;1.00;;;21.20;99.90;;;;;;6255027;22;20696;-87
2023/10/06 10:43:00;;;;;;;1.57;1.47;;;20.80;99.90;;;;;;6284176;22;20419;-84
2023/10/06 10:45:43;;;;;;;0.90;0.90;;;20.80;99.90;;;;;;6282288;22;20745;-83
2023/10/06 10:48:14;;;;;;;1.00;1.00;;;20.80;99.90;;;;;;6281400;22;20412;-82
2023/10/06 10:50:59;;;;;;;7.23;1.53;;;20.70;99.90;;;;;;6281708;22;20378;-83
2023/10/06 10:53:36;;;;;;;1.50;1.40;;;20.80;99.90;;;;;;6280897;22;20399;-83
2023/10/06 10:56:03;;;;;;;1.23;1.23;;;;;;;;;;6255020;22;20404;-82
2023/10/06 10:58:53;;;;;;;0.80;0.80;;;20.30;99.90;;;;;;6281456;22;20401;-85
2023/10/06 11:01:27;;;;;;;1.00;1.00;;;20.50;99.90;;;;;;6281813;22;20443;-82
2023/10/06 11:04:10;;;;;;;1.73;1.63;;;20.50;99.90;;;;;;6255135;22;20376;-82
2023/10/06 11:06:38;;;;;;;0.80;0.80;;;20.30;99.90;;;;;;6280556;22;20407;-81
2023/10/06 11:09:25;;;;;;;1.20;1.20;;;20.10;99.90;;;;;;6280688;22;20434;-81
2023/10/06 11:12:20;;;;;;;0.90;0.90;;;19.90;99.90;;;;;;6282031;22;20387;-82
2023/10/06 11:14:52;;;;;;;3.33;3.13;;;20.00;99.90;;;;;;6281874;22;20385;-83
2023/10/06 11:17:26;;;;;;;1.57;1.57;;;19.60;99.90;;;;;;6281921;22;20519;-81
2023/10/06 11:23:06;;;;;;;0.70;0.70;;;19.90;99.90;;;;;;6217455;22;20395;-81
2023/10/06 11:25:38;;;;;;;0.80;0.80;;;20.30;99.90;;;;;;6284127;22;20444;-80
2023/10/06 11:28:08;;;;;;;0.80;0.80;;;20.40;99.90;;;;;;6283267;22;20368;-80
2023/10/06 11:30:38;;;;;;;1.33;1.33;;;20.50;99.90;;;;;;6283139;22;20667;-84
2023/10/06 11:33:08;;;;;;;0.80;0.80;;;20.80;99.90;;;;;;6296844;22;20392;-81
2023/10/06 11:35:38;;;;;;;4.20;3.90;;;20.80;99.90;;;;;;6291385;22;20424;-81
2023/10/06 11:38:11;;;;;;;0.80;0.80;;;20.70;99.90;;;;;;6280014;22;20401;-82
2023/10/06 11:40:40;;;;;;;0.90;0.90;;;;;;;;;;6279897;22;20470;-81
2023/10/06 11:43:17;;;;;;;0.90;0.90;;;20.50;99.90;;;;;;6281967;22;20510;-81
2023/10/06 11:45:46;;;;;;;0.80;0.80;;;;;;;;;;6274844;22;20493;-83
2023/10/06 11:48:35;;;;;;;1.23;1.23;;;20.20;99.90;;;;;;6281328;22;20405;-84
2023/10/06 11:51:08;;;;;;;1.83;1.73;;;20.20;99.90;;;;;;6281045;22;20377;-83
2023/10/06 11:53:38;;;;;;;0.80;0.80;;;20.50;99.90;;;;;;6280126;22;20372;-81
2023/10/06 11:56:13;;;;;;;1.37;1.27;;;20.70;99.90;;;;;;6280535;22;20567;-81
2023/10/06 11:58:42;;;;;;;0.77;0.77;;;21.20;99.90;;;;;;6279454;22;20475;-82
2023/10/06 12:01:31;;;;;;;0.90;0.90;;;20.40;99.90;;;;;;6280854;22;20513;-83
2023/10/06 12:04:00;;;;;;;1.00;1.00;;;;;;;;;;6280711;22;20355;-81
2023/10/06 12:06:41;;;;;;;0.80;0.80;;;21.00;99.90;;;;;;6281590;22;20436;-79
2023/10/06 12:09:12;;;;;;;1.53;1.43;;;;;;;;;;6280401;22;20376;-83
2023/10/06 12:11:40;;;;;;;0.90;0.90;;;20.80;99.90;;;;;;6280740;22;20620;-84
2023/10/06 12:14:08;;;;;;;1.13;1.13;;;;;;;;;;6282103;22;20790;-81
2023/10/06 12:16:36;;;;;;;0.70;0.70;;;;;;;;;;6255209;22;20404;-81
2023/10/06 12:19:05;;;;;;;1.50;1.50;;;;;;;;;;6254581;22;20400;-80
2023/10/06 12:21:35;;;;;;;1.47;1.37;;;21.10;99.90;;;;;;6281405;22;20392;-82
2023/10/06 12:24:04;;;;;;;0.80;0.80;;;;;;;;;;6282776;22;20402;-81
2023/10/06 12:26:33;;;;;;;2.20;2.10;;;;;;;;;;6283245;22;20503;-82
2023/10/06 12:29:02;;;;;;;1.40;1.37;;;;;;;;;;6284388;22;20722;-80
2023/10/06 12:31:29;;;;;;;0.93;0.93;;;;;;;;;;6284029;22;20396;-81
2023/10/06 12:33:56;;;;;;;0.80;0.80;;;;;;;;;;6281275;22;20419;-82
2023/10/06 12:36:24;;;;;;;1.70;1.17;;;;;;;;;;6282868;22;20469;-82
2023/10/06 12:38:52;;;;;;;3.37;1.10;;;;;;;;;;6281743;22;20876;-81
2023/10/06 12:41:20;;;;;;;0.97;0.97;;;;;;;;;;6281970;22;20420;-82
2023/10/06 12:43:47;;;;;;;1.40;1.30;;;;;;;;;;6282205;22;20395;-84
2023/10/06 12:46:15;;;;;;;0.80;0.80;;;;;;;;;;6286480;22;20465;-82
2023/10/06 12:48:43;;;;;;;0.90;0.90;;;21.20;99.90;;;;;;6299755;22;20404;-81
2023/10/06 12:51:13;;;;;;;1.00;1.00;;;;;;;;;;6295236;22;20462;-81
2023/10/06 12:53:41;;;;;;;0.90;0.90;;;;;;;;;;6295267;22;20400;-83
2023/10/06 12:56:09;;;;;;;0.80;0.80;;;;;;;;;;6289244;22;20400;-84
2023/10/06 12:58:38;;;;;;;0.80;0.80;;;;;;;;;;6255577;22;20400;-80
2023/10/06 13:01:07;;;;;;;1.37;1.27;;;;;;;;;;6281151;22;20424;-80
2023/10/06 13:03:36;;;;;;;1.73;1.63;;;;;;;;;;6281357;22;20408;-82
2023/10/06 13:06:04;;;;;;;1.40;1.40;;;;;;;;;;6280403;22;20473;-82
2023/10/06 13:08:33;;;;;;;1.00;1.00;;;;;;;;;;6281077;22;20370;-80
2023/10/06 13:11:03;;;;;;;1.00;1.00;;;;;;;;;;6280158;22;20470;-80
2023/10/06 13:13:33;;;;;;;0.80;0.80;;;;;;;;;;6253194;22;20415;-80
2023/10/06 13:16:06;;;;;;;2.83;2.63;;;;;;;;;;6280907;22;20628;-81
2023/10/06 13:18:38;;;;;;;0.80;0.80;;;20.40;99.90;;;;;;6254424;22;20384;-82
2023/10/06 13:21:07;;;;;;;1.83;1.73;;;;;;;;;;6282438;22;20387;-80
2023/10/06 13:23:36;;;;;;;2.70;2.60;;;20.10;99.90;;;;;;6282803;22;20431;-83
2023/10/06 13:26:03;;;;;;;1.23;1.23;;;20.70;99.90;;;;;;6280815;22;20521;-80
2023/10/06 13:28:32;;;;;;;1.43;1.43;;;20.60;99.90;;;;;;6281110;22;20400;-82
2023/10/06 13:30:59;;;;;;;0.90;0.90;;;20.70;99.90;;;;;;6252901;22;20714;-85
2023/10/06 13:33:26;;;;;;;1.23;1.23;;;20.60;99.90;;;;;;6279615;22;20562;-82
2023/10/06 13:35:53;;;;;;;0.80;0.80;;;21.00;99.90;;;;;;6279992;22;20436;-79
2023/10/06 13:38:22;;;;;;;1.27;1.23;;;20.70;99.90;;;;;;6280435;22;20400;-81
2023/10/06 13:40:50;;;;;;;0.90;0.90;;;20.60;99.90;;;;;;6280600;22;20781;-81
2023/10/06 13:43:20;;;;;;;0.93;0.93;;;20.60;99.90;;;;;;6290491;22;20427;-81
2023/10/06 13:45:48;;;;;;;1.00;1.00;;;20.60;99.90;;;;;;6259905;22;20482;-81
2023/10/06 13:48:16;;;;;;;1.33;1.23;;;20.50;99.90;;;;;;6282415;22;20396;-81
2023/10/06 13:50:45;;;;;;;2.70;2.07;;;;;;;;;;6279290;22;20445;-81
2023/10/06 13:53:15;;;;;;;1.20;1.20;;;;;;;;;;6254842;22;20600;-83